Time;durP1;ratioP1;P1;durP2;ratioP2;P2;SDS_P1;SDS_P2;PMS_P1;PMS_P2;Temp;Humidity;BMP_temperature;BMP_pressure;BME280_temperature;BME280_humidity;BME280_pressure;Samples;Min_cycle;Max_cycle;Signal;HPM_P1;HPM_P2
2021/03/17 00:00:45;;;;;;;70.83;39.08;;;;;;;1.98;78.38;96804.84;1787193;78;25644;-84
2021/03/17 00:03:14;;;;;;;71.97;39.58;;;;;;;2.00;78.36;96794.36;1787559;78;25793;-84
2021/03/17 00:05:44;;;;;;;70.08;39.42;;;;;;;2.06;78.36;96798.15;1787530;80;25724;-83
2021/03/17 00:08:11;;;;;;;75.12;40.70;;;;;;;2.08;78.29;96793.48;1787580;79;25862;-84
2021/03/17 00:10:42;;;;;;;64.15;37.67;;;;;;;2.10;78.29;96794.98;1787515;80;28366;-84
2021/03/17 00:13:10;;;;;;;71.30;39.58;;;;;;;2.11;78.25;96793.15;1787466;79;25806;-84
2021/03/17 00:15:40;;;;;;;75.45;40.38;;;;;;;2.08;78.21;96789.49;1787392;80;25719;-84
2021/03/17 00:18:11;;;;;;;75.12;40.65;;;;;;;2.11;78.22;96783.33;1787578;78;25694;-84
2021/03/17 00:20:38;;;;;;;77.97;43.00;;;;;;;2.12;78.17;96784.99;1787540;80;25665;-84
2021/03/17 00:23:06;;;;;;;79.75;42.67;;;;;;;2.10;78.15;96784.83;1787568;79;27562;-84
2021/03/17 00:25:36;;;;;;;81.60;44.95;;;;;;;2.05;78.21;96786.67;1787500;79;25695;-84
2021/03/17 00:28:04;;;;;;;85.20;45.65;;;;;;;1.99;78.24;96787.88;1787489;80;25758;-83
2021/03/17 00:30:34;;;;;;;85.95;44.65;;;;;;;1.97;78.35;96785.38;1787559;79;25760;-84
2021/03/17 00:33:04;;;;;;;77.35;41.55;;;;;;;2.01;78.42;96783.22;1787548;80;25850;-84
2021/03/17 00:35:31;;;;;;;82.20;46.42;;;;;;;2.04;78.39;96781.55;1787675;79;26767;-84
2021/03/17 00:37:59;;;;;;;85.07;46.10;;;;;;;2.01;78.40;96785.88;1787532;79;26022;-85
2021/03/17 00:40:26;;;;;;;82.97;44.40;;;;;;;1.98;78.46;96784.88;1787570;79;25675;-84
2021/03/17 00:42:54;;;;;;;89.90;48.83;;;;;;;1.96;78.46;96780.23;1787406;79;26070;-84
2021/03/17 00:45:21;;;;;;;90.17;48.20;;;;;;;1.92;78.45;96782.43;1787707;80;25754;-84
2021/03/17 00:47:49;;;;;;;93.97;48.70;;;;;;;1.90;78.45;96780.94;1787656;80;27530;-84
2021/03/17 00:50:18;;;;;;;84.92;44.85;;;;;;;1.83;78.46;96782.11;1787719;79;25773;-84
2021/03/17 00:52:45;;;;;;;86.97;49.42;;;;;;;1.78;78.35;96779.98;1787632;80;25640;-84
2021/03/17 00:55:13;;;;;;;93.42;49.65;;;;;;;1.76;78.64;96781.98;1787681;80;25937;-84
2021/03/17 00:57:42;;;;;;;77.72;40.90;;;;;;;1.83;78.80;96782.11;1787722;79;25348;-84
2021/03/17 01:00:12;;;;;;;86.47;46.68;;;;;;;1.89;78.82;96784.59;1787509;78;27484;-84
2021/03/17 01:02:40;;;;;;;88.50;47.78;;;;;;;1.87;78.83;96782.60;1787317;80;26263;-83
2021/03/17 01:05:09;;;;;;;87.92;49.13;;;;;;;1.86;78.86;96782.27;1787450;80;25892;-83
2021/03/17 01:07:37;;;;;;;89.37;47.83;;;;;;;1.88;78.85;96785.59;1773886;78;25738;-82
2021/03/17 01:10:18;;;;;;;87.02;47.43;;;;;;;1.90;78.91;96782.27;1790643;78;25321;-82
2021/03/17 01:12:46;;;;;;;90.72;49.08;;;;;;;1.90;78.90;96780.94;1778861;79;27511;-83
2021/03/17 01:15:18;;;;;;;85.53;46.70;;;;;;;1.87;78.94;96771.45;1790425;80;25683;-83
2021/03/17 01:17:45;;;;;;;85.35;47.58;;;;;;;1.90;78.95;96768.95;1790559;79;25688;-83
2021/03/17 01:20:14;;;;;;;88.25;47.78;;;;;;;1.90;78.96;96772.95;1790437;80;25775;-83
2021/03/17 01:22:41;;;;;;;84.37;47.50;;;;;;;1.87;78.95;96778.61;1790604;79;25725;-83
2021/03/17 01:25:13;;;;;;;88.00;45.92;;;;;;;1.85;79.00;96772.62;1790518;79;28441;-83
2021/03/17 01:27:41;;;;;;;86.32;46.33;;;;;;;1.83;78.95;96775.95;1790618;80;25745;-86
2021/03/17 01:30:11;;;;;;;88.47;47.00;;;;;;;1.86;79.08;96783.10;1790562;79;25649;-83
2021/03/17 01:32:38;;;;;;;89.50;49.08;;;;;;;1.91;79.10;96775.44;1790466;80;26329;-82
2021/03/17 01:35:14;;;;;;;87.67;48.42;;;;;;;1.92;79.09;96773.11;1790493;79;25731;-82
2021/03/17 01:37:42;;;;;;;89.17;46.58;;;;;;;1.91;79.09;96770.13;1790460;79;27476;-82
2021/03/17 01:40:12;;;;;;;92.27;48.42;;;;;;;1.93;79.13;96773.95;1790357;78;26119;-82
2021/03/17 01:42:40;;;;;;;95.62;51.88;;;;;;;1.96;79.12;96776.23;1790396;78;25631;-82
2021/03/17 01:45:16;;;;;;;83.12;47.23;;;;;;;2.00;79.11;96776.23;1790480;79;25727;-83
2021/03/17 01:47:46;;;;;;;86.22;47.27;;;;;;;2.05;79.06;96772.03;1790499;79;26163;-82
2021/03/17 01:50:36;;;;;;;87.33;48.40;;;;;;;2.09;79.00;96774.68;1790419;78;28565;-81
2021/03/17 01:53:09;;;;;;;84.30;46.88;;;;;;;2.12;78.94;96770.34;1790310;80;26507;-82
2021/03/17 01:55:37;;;;;;;;;;;;;;;2.11;78.84;96770.02;1793147;80;25708;-82
2021/03/17 01:58:05;;;;;;;82.37;44.05;;;;;;;2.04;78.84;96768.23;1790518;79;25763;-82
2021/03/17 02:00:34;;;;;;;82.02;45.67;;;;;;;2.02;78.94;96773.73;1790490;79;25740;-82
2021/03/17 02:03:02;;;;;;;88.58;46.65;;;;;;;2.03;78.99;96766.57;1790398;79;27595;-83
2021/03/17 02:05:33;;;;;;;87.30;48.08;;;;;;;2.00;78.95;96765.08;1790294;78;26134;-83
2021/03/17 02:08:05;;;;;;;82.60;46.53;;;;;;;1.99;78.98;96765.25;1781713;78;25789;-84
2021/03/17 02:10:34;;;;;;;88.40;46.77;;;;;;;2.00;78.99;96764.25;1762533;81;25732;-82
2021/03/17 02:13:22;;;;;;;88.33;47.38;;;;;;;1.98;79.02;96763.59;1762504;80;25714;-83
2021/03/17 02:16:09;;;;;;;86.28;45.63;;;;;;;1.97;79.02;96765.92;1748919;81;27486;-81
2021/03/17 02:19:08;;;;;;;78.35;43.87;;;;;;;1.99;79.08;96762.59;1762314;81;25930;-82
2021/03/17 02:22:23;;;;;;;79.42;44.18;;;;;;;2.01;79.05;96767.24;1762286;79;25776;-83
2021/03/17 02:25:08;;;;;;;82.05;41.73;;;;;;;2.02;79.04;96760.42;1762360;79;25669;-83
2021/03/17 02:28:08;;;;;;;83.12;46.95;;;;;;;1.96;78.99;96758.44;1749008;81;25873;-83
2021/03/17 02:30:59;;;;;;;86.02;44.83;;;;;;;1.90;78.96;96759.64;1762136;79;28479;-82
2021/03/17 02:33:48;;;;;;;77.08;41.15;;;;;;;1.90;79.09;96758.31;1748802;80;26138;-83
2021/03/17 02:36:26;;;;;;;86.70;46.37;;;;;;;1.94;79.21;96760.94;1762367;80;25768;-81
2021/03/17 02:39:07;;;;;;;81.75;44.55;;;;;;;1.92;79.17;96756.31;1747254;80;25523;-81
2021/03/17 02:41:42;;;;;;;76.63;42.70;;;;;;;1.94;79.17;96756.44;1720200;83;25792;-82
2021/03/17 02:44:14;;;;;;;74.30;43.25;;;;;;;1.94;79.06;96753.78;1712599;83;27632;-84
2021/03/17 02:46:42;;;;;;;80.25;44.48;;;;;;;1.85;78.94;96754.83;1720965;83;25643;-82
2021/03/17 02:49:23;;;;;;;79.12;44.75;;;;;;;1.79;78.99;96757.70;1712573;82;25817;-82
2021/03/17 02:51:55;;;;;;;72.92;41.58;;;;;;;1.79;79.04;96753.70;1720909;83;26464;-83
2021/03/17 02:54:24;;;;;;;73.17;44.00;;;;;;;1.78;79.04;96755.20;1712768;82;25734;-80
2021/03/17 02:57:06;;;;;;;78.78;42.95;;;;;;;1.75;78.99;96753.70;1720780;83;27497;-82
2021/03/17 02:59:37;;;;;;;72.10;39.50;;;;;;;1.77;79.00;96751.71;1712715;82;25637;-82
2021/03/17 03:02:07;;;;;;;76.25;43.35;;;;;;;1.76;78.99;96750.55;1720845;83;25761;-83
2021/03/17 03:04:36;;;;;;;72.87;41.83;;;;;;;1.72;79.01;96761.20;1712563;82;26681;-83
2021/03/17 03:07:05;;;;;;;77.25;43.25;;;;;;;1.72;79.08;96758.03;1720569;82;25860;-83
2021/03/17 03:09:34;;;;;;;72.20;41.92;;;;;;;1.70;79.07;96760.03;1712543;82;28451;-82
2021/03/17 03:12:03;;;;;;;68.05;40.38;;;;;;;1.69;79.02;96762.36;1720657;82;26136;-83
2021/03/17 03:14:31;;;;;;;70.28;40.20;;;;;;;1.72;78.93;96759.86;1712508;82;25736;-84
2021/03/17 03:17:00;;;;;;;72.22;41.70;;;;;;;1.75;78.94;96764.35;1720766;83;25737;-83
2021/03/17 03:19:34;;;;;;;77.82;43.08;;;;;;;1.79;78.87;96764.84;1712574;82;26369;-83
2021/03/17 03:22:04;;;;;;;72.15;41.15;;;;;;;1.84;78.82;96761.65;1720848;83;28492;-82
2021/03/17 03:24:32;;;;;;;68.78;38.42;;;;;;;1.86;78.77;96756.48;1712517;82;25702;-84
2021/03/17 03:27:01;;;;;;;70.80;41.15;;;;;;;1.91;78.69;96758.14;1720756;83;26214;-82
2021/03/17 03:29:29;;;;;;;72.08;42.00;;;;;;;1.89;78.60;96767.30;1712572;82;25804;-83
2021/03/17 03:31:58;;;;;;;73.15;39.75;;;;;;;1.84;78.57;96762.48;1720765;82;25758;-82
2021/03/17 03:34:26;;;;;;;70.10;41.05;;;;;;;1.80;78.54;96768.67;1712610;82;27560;-85
2021/03/17 03:36:53;;;;;;;73.22;43.25;;;;;;;1.76;78.61;96764.69;1720734;83;25755;-83
2021/03/17 03:39:20;;;;;;;73.60;40.75;;;;;;;1.73;78.65;96769.51;1712743;82;25655;-86
2021/03/17 03:41:48;;;;;;;70.30;39.88;;;;;;;1.73;78.74;96767.68;1720940;83;25837;-82
2021/03/17 03:44:15;;;;;;;70.17;40.15;;;;;;;1.71;78.74;96771.01;1712753;83;25822;-83
2021/03/17 03:46:42;;;;;;;70.92;40.38;;;;;;;1.72;78.80;96763.36;1720857;83;27604;-82
2021/03/17 03:49:10;;;;;;;69.62;39.73;;;;;;;1.77;78.84;96766.34;1712671;82;26136;-83
2021/03/17 03:51:44;;;;;;;75.78;42.17;;;;;;;1.78;78.74;96770.67;1720829;83;25726;-81
2021/03/17 03:54:41;;;;;;;70.70;41.15;;;;;;;1.76;78.71;96771.34;1712621;82;25730;-82
2021/03/17 03:57:24;;;;;;;69.07;39.83;;;;;;;1.79;78.75;96768.84;1720837;83;25719;-81
2021/03/17 04:00:03;;;;;;;72.42;40.12;;;;;;;1.80;78.75;96773.99;1689837;83;27515;-82
2021/03/17 04:02:34;;;;;;;66.67;38.38;;;;;;;1.81;78.69;96771.63;1781133;80;25781;-82
2021/03/17 04:05:04;;;;;;;67.20;37.13;;;;;;;1.83;78.65;96774.63;1781333;80;25691;-81
2021/03/17 04:07:35;;;;;;;63.58;37.20;;;;;;;1.78;78.56;96774.66;1781194;80;25687;-82
2021/03/17 04:10:07;;;;;;;68.57;38.38;;;;;;;1.72;78.59;96772.67;1781161;80;25668;-81
2021/03/17 04:12:37;;;;;;;63.08;35.08;;;;;;;1.75;78.68;96776.33;1781485;80;28532;-82
2021/03/17 04:15:08;;;;;;;64.47;34.83;;;;;;;1.79;78.70;96773.66;1781175;80;25310;-81
2021/03/17 04:17:56;;;;;;;59.53;35.63;;;;;;;1.79;78.62;96774.16;1781304;80;25875;-83
2021/03/17 04:20:28;;;;;;;67.95;37.48;;;;;;;1.75;78.55;96773.66;1781414;79;25822;-81
2021/03/17 04:22:56;;;;;;;;;;;;;;;1.75;78.51;96773.66;1784020;80;25807;-86
2021/03/17 04:25:26;;;;;;;65.83;36.95;;;;;;;1.75;78.50;96767.52;1781519;80;28441;-83
2021/03/17 04:27:55;;;;;;;70.40;37.55;;;;;;;1.76;78.52;96776.66;1781319;79;26114;-83
2021/03/17 04:30:25;;;;;;;65.12;39.00;;;;;;;1.75;78.44;96772.33;1781361;79;25770;-82
2021/03/17 04:32:55;;;;;;;72.12;38.70;;;;;;;1.74;78.36;96778.66;1781444;80;25936;-83
2021/03/17 04:35:23;;;;;;;72.47;41.10;;;;;;;1.73;78.36;96775.66;1781366;79;25715;-81
2021/03/17 04:37:54;;;;;;;70.15;38.80;;;;;;;1.77;78.44;96780.98;1781413;80;27475;-81
2021/03/17 04:40:23;;;;;;;67.85;37.88;;;;;;;1.80;78.52;96780.64;1781196;80;25735;-81
2021/03/17 04:42:51;;;;;;;67.32;36.88;;;;;;;1.83;78.39;96773.30;1781453;79;25654;-81
2021/03/17 04:45:19;;;;;;;67.17;35.98;;;;;;;1.78;78.27;96775.98;1781346;80;25798;-83
2021/03/17 04:47:51;;;;;;;70.90;38.20;;;;;;;1.75;78.30;96771.50;1781392;79;25702;-82
2021/03/17 04:50:19;;;;;;;65.85;38.80;;;;;;;1.72;78.28;96776.66;1781461;80;27578;-83
2021/03/17 04:52:47;;;;;;;67.92;38.10;;;;;;;1.72;78.33;96775.33;1781354;80;25706;-82
2021/03/17 04:55:17;;;;;;;65.12;38.40;;;;;;;1.69;78.21;96776.99;1781323;80;25712;-83
2021/03/17 04:57:47;;;;;;;70.90;38.95;;;;;;;1.67;78.31;96772.38;1781327;80;25787;-83
2021/03/17 05:00:18;;;;;;;72.97;40.60;;;;;;;1.72;78.40;96771.34;1781235;80;25765;-82
2021/03/17 05:02:56;;;;;;;77.17;41.15;;;;;;;1.74;78.39;96778.66;1781498;79;27305;-82
2021/03/17 05:05:24;;;;;;;74.92;41.53;;;;;;;1.65;78.29;96781.02;1781233;80;25819;-81
2021/03/17 05:07:53;;;;;;;75.42;40.85;;;;;;;1.63;78.40;96776.36;1781306;80;25734;-81
2021/03/17 05:10:23;;;;;;;75.37;39.00;;;;;;;1.66;78.48;96776.53;1781917;79;26270;-82
2021/03/17 05:12:51;;;;;;;84.00;44.55;;;;;;;1.67;78.38;96782.19;1782223;80;25751;-86
2021/03/17 05:15:20;;;;;;;80.80;42.58;;;;;;;1.55;78.41;96775.07;1782009;79;27573;-83
2021/03/17 05:17:50;;;;;;;93.00;47.10;;;;;;;1.55;78.58;96780.89;1782046;80;25731;-81
2021/03/17 05:20:22;;;;;;;75.30;42.23;;;;;;;1.54;78.65;96777.40;1782096;80;25699;-82
2021/03/17 05:22:50;;;;;;;;;;;;;;;1.60;78.66;96782.52;1784714;80;25951;-81
2021/03/17 05:25:23;;;;;;;74.55;41.02;;;;;;;1.63;78.70;96785.67;1781924;80;25721;-80
2021/03/17 05:28:03;;;;;;;75.67;42.95;;;;;;;1.65;78.71;96787.67;1781861;79;28911;-85
2021/03/17 05:30:29;;;;;;;79.35;43.02;;;;;;;1.67;78.68;96784.34;1781547;80;25714;-82
2021/03/17 05:32:57;;;;;;;70.22;39.58;;;;;;;1.69;78.65;96786.30;1781916;79;25763;-85
2021/03/17 05:35:26;;;;;;;67.65;38.80;;;;;;;1.68;78.63;96796.65;1781867;80;26756;-86
2021/03/17 05:37:53;;;;;;;71.53;39.95;;;;;;;1.71;78.64;96794.13;1781898;80;25854;-81
2021/03/17 05:40:21;;;;;;;71.17;39.55;;;;;;;1.74;78.62;96791.95;1782063;79;27527;-80
2021/03/17 05:42:48;;;;;;;72.25;39.45;;;;;;;1.75;78.55;96793.63;1782068;80;25294;-80
2021/03/17 05:45:21;;;;;;;75.45;41.58;;;;;;;1.78;78.55;96797.28;1782036;80;25743;-81
2021/03/17 05:47:50;;;;;;;78.85;42.53;;;;;;;1.78;78.48;96790.63;1782114;80;26275;-80
2021/03/17 05:50:24;;;;;;;79.03;42.78;;;;;;;1.81;78.54;96795.58;1782064;80;25782;-82
2021/03/17 05:52:51;;;;;;;76.95;41.20;;;;;;;1.78;78.51;96798.61;1782063;80;27559;-82
2021/03/17 05:55:20;;;;;;;81.45;43.05;;;;;;;1.76;78.47;96803.77;1781949;80;26325;-82
2021/03/17 05:57:47;;;;;;;83.17;44.63;;;;;;;1.73;78.58;96803.59;1782062;79;25718;-81
2021/03/17 06:00:22;;;;;;;86.60;45.23;;;;;;;1.76;78.62;96806.42;1782059;80;26306;-82
2021/03/17 06:02:50;;;;;;;77.05;40.20;;;;;;;1.74;78.62;96809.25;1782035;80;25833;-83
2021/03/17 06:05:20;;;;;;;75.25;39.48;;;;;;;1.75;78.55;96817.56;1782138;80;27487;-83
2021/03/17 06:08:08;;;;;;;73.57;39.45;;;;;;;1.66;78.38;96813.28;1781881;80;25754;-83
2021/03/17 06:10:36;;;;;;;65.87;35.17;;;;;;;1.53;78.22;96818.79;1782064;79;25700;-83
2021/03/17 06:13:10;;;;;;;75.70;42.10;;;;;;;1.42;78.53;96812.83;1781976;79;25664;-83
2021/03/17 06:15:51;;;;;;;76.87;41.35;;;;;;;1.39;78.66;96814.48;1782178;80;25648;-81
2021/03/17 06:18:25;;;;;;;67.62;35.90;;;;;;;1.43;78.82;96820.31;1782072;80;27499;-82
2021/03/17 06:20:53;;;;;;;78.70;44.85;;;;;;;1.41;78.82;96823.63;1782042;80;25753;-82
2021/03/17 06:23:21;;;;;;;76.82;39.80;;;;;;;1.38;78.73;96825.29;1781979;80;25836;-82
2021/03/17 06:25:49;;;;;;;77.78;39.65;;;;;;;1.40;78.88;96832.61;1782050;80;25815;-82
2021/03/17 06:28:17;;;;;;;75.45;38.28;;;;;;;1.41;78.96;96831.11;1782051;80;25763;-84
2021/03/17 06:30:45;;;;;;;72.45;41.37;;;;;;;1.43;78.97;96832.28;1781972;80;28521;-85
2021/03/17 06:33:12;;;;;;;75.52;38.75;;;;;;;1.44;79.00;96838.77;1781919;80;25752;-83
2021/03/17 06:35:39;;;;;;;73.85;37.90;;;;;;;1.44;78.93;96837.94;1782003;80;25691;-83
2021/03/17 06:38:20;;;;;;;73.22;40.30;;;;;;;1.40;78.97;96848.06;1781934;80;25895;-84
2021/03/17 06:40:57;;;;;;;73.75;39.48;;;;;;;1.36;79.03;96849.39;1782018;80;25791;-83
2021/03/17 06:43:41;;;;;;;66.85;37.70;;;;;;;1.39;79.13;96850.89;1782073;79;28406;-83
2021/03/17 06:46:12;;;;;;;75.92;40.00;;;;;;;1.39;79.14;96850.89;1781935;80;25745;-83
2021/03/17 06:48:41;;;;;;;73.00;39.23;;;;;;;1.39;79.24;96851.72;1782065;80;25708;-83
2021/03/17 06:51:18;;;;;;;76.35;42.48;;;;;;;1.45;79.28;96851.53;1781939;80;25828;-82
2021/03/17 06:53:54;;;;;;;55.78;30.25;;;;;;;1.49;79.32;96851.54;1782103;80;25788;-83
2021/03/17 06:56:31;;;;;;;78.70;43.65;;;;;;;1.60;79.32;96847.69;1782005;80;27493;-82
2021/03/17 06:59:03;;;;;;;73.70;40.03;;;;;;;1.60;79.26;96845.87;1755714;80;25765;-83
2021/03/17 07:01:42;;;;;;;140.82;67.75;;;;;;;1.71;79.17;96845.51;1782259;79;25726;-83
2021/03/17 07:04:16;;;;;;;92.97;47.80;;;;;;;1.79;79.14;96855.32;1781982;80;25900;-82
2021/03/17 07:06:47;;;;;;;64.17;33.92;;;;;;;1.87;79.17;96847.80;1777582;79;25811;-82
2021/03/17 07:09:25;;;;;;;81.25;40.83;;;;;;;1.92;79.15;96854.30;1781965;79;27498;-83
2021/03/17 07:12:06;;;;;;;78.62;41.20;;;;;;;1.85;79.03;96856.45;1778207;80;25810;-82
2021/03/17 07:14:42;;;;;;;78.72;40.00;;;;;;;1.93;79.21;96857.78;1778271;79;25762;-84
2021/03/17 07:17:31;;;;;;;78.15;41.60;;;;;;;2.01;79.09;96864.41;1781223;80;25830;-82
2021/03/17 07:19:59;;;;;;;84.07;43.48;;;;;;;2.08;79.14;96856.05;1781071;80;25749;-83
2021/03/17 07:22:27;;;;;;;83.35;44.42;;;;;;;2.20;79.13;96860.00;1781169;79;27483;-83
2021/03/17 07:25:01;;;;;;;74.00;41.92;;;;;;;2.31;79.15;96856.95;1781096;79;25974;-82
2021/03/17 07:27:31;;;;;;;76.35;40.67;;;;;;;2.42;78.99;96857.07;1781196;80;26183;-83
2021/03/17 07:30:04;;;;;;;71.62;38.48;;;;;;;2.50;78.84;96860.55;1781130;79;26878;-83
2021/03/17 07:33:03;;;;;;;80.67;46.28;;;;;;;2.57;78.74;96854.50;1781321;80;25750;-84
2021/03/17 07:35:37;;;;;;;77.03;39.80;;;;;;;2.61;78.58;96865.98;1781067;80;27529;-82
2021/03/17 07:38:13;;;;;;;74.25;41.10;;;;;;;2.65;78.57;96861.14;1781097;80;25656;-82
2021/03/17 07:40:45;;;;;;;77.60;42.67;;;;;;;2.75;78.52;96863.08;1781147;80;25738;-83
2021/03/17 07:43:15;;;;;;;71.82;41.50;;;;;;;2.81;78.36;96859.69;1781040;80;26744;-82
2021/03/17 07:45:43;;;;;;;66.65;36.45;;;;;;;2.89;78.26;96870.33;1781191;80;25875;-83
2021/03/17 07:48:13;;;;;;;69.32;38.42;;;;;;;2.96;78.12;96871.27;1781080;79;28364;-83
2021/03/17 07:50:42;;;;;;;64.55;36.53;;;;;;;2.95;78.12;96864.27;1781112;79;25752;-83
2021/03/17 07:53:23;;;;;;;65.83;36.90;;;;;;;3.02;78.17;96862.55;1781191;80;25261;-83
2021/03/17 07:55:58;;;;;;;72.30;38.95;;;;;;;3.08;78.02;96869.85;1781128;80;25892;-82
2021/03/17 07:58:26;;;;;;;64.72;38.63;;;;;;;3.22;78.19;96866.41;1781137;80;25708;-83
2021/03/17 08:00:54;;;;;;;68.37;37.93;;;;;;;3.38;77.92;96876.11;1781100;79;27496;-83
2021/03/17 08:03:23;;;;;;;85.77;46.60;;;;;;;3.42;77.75;96869.91;1780982;79;26045;-82
2021/03/17 08:05:51;;;;;;;85.90;45.78;;;;;;;3.47;77.57;96873.72;1781078;80;25747;-84
2021/03/17 08:08:23;;;;;;;82.20;46.13;;;;;;;3.51;77.34;96875.50;1781137;80;26202;-83
2021/03/17 08:10:52;;;;;;;71.50;40.67;;;;;;;3.54;77.27;96874.64;1781135;79;25735;-83
2021/03/17 08:13:20;;;;;;;70.08;38.48;;;;;;;3.58;77.12;96885.80;1781094;80;27477;-83
2021/03/17 08:15:48;;;;;;;59.38;33.70;;;;;;;3.64;77.09;96883.72;1781014;79;25640;-84
2021/03/17 08:18:36;;;;;;;60.60;35.73;;;;;;;3.68;76.92;96883.70;1781180;80;25802;-84
2021/03/17 08:21:03;;;;;;;69.97;37.35;;;;;;;3.72;76.81;96881.51;1781169;80;25863;-83
2021/03/17 08:23:48;;;;;;;60.85;34.38;;;;;;;3.76;76.76;96887.62;1781142;79;26409;-84
2021/03/17 08:26:26;;;;;;;45.28;27.05;;;;;;;3.82;76.67;96878.90;1781226;79;27493;-85
2021/03/17 08:28:56;;;;;;;53.65;30.95;;;;;;;3.86;76.09;96885.55;1755077;80;25775;-84
2021/03/17 08:31:45;;;;;;;54.45;31.82;;;;;;;3.92;75.98;96887.47;1781131;79;25301;-83
2021/03/17 08:34:24;;;;;;;45.05;26.40;;;;;;;3.96;75.98;96891.45;1781041;79;25788;-85
2021/03/17 08:37:11;;;;;;;43.02;26.57;;;;;;;3.76;75.46;96888.12;1781186;79;25821;-85
2021/03/17 08:39:46;;;;;;;49.50;27.87;;;;;;;3.67;75.43;96890.05;1780766;79;27507;-83
2021/03/17 08:42:32;;;;;;;47.20;27.25;;;;;;;3.64;75.56;96890.40;1781040;80;25764;-84
2021/03/17 08:45:03;;;;;;;51.88;29.70;;;;;;;3.68;75.43;96891.70;1781056;80;25671;-84
2021/03/17 08:47:45;;;;;;;47.48;29.25;;;;;;;3.79;75.41;96889.10;1780715;79;25809;-84
2021/03/17 08:50:23;;;;;;;48.95;27.85;;;;;;;3.82;75.34;96890.91;1781356;80;30385;-83
2021/03/17 08:52:55;;;;;;;48.50;28.35;;;;;;;3.80;75.36;96895.59;1781092;80;27496;-85
2021/03/17 08:55:38;;;;;;;49.27;30.43;;;;;;;3.78;75.24;96897.61;1780576;80;25820;-83
2021/03/17 08:58:24;;;;;;;36.15;22.50;;;;;;;3.78;75.17;96896.28;1781106;80;25734;-84
2021/03/17 09:01:00;;;;;;;47.67;27.58;;;;;;;3.81;75.11;96899.93;1781113;80;25860;-84
2021/03/17 09:03:36;;;;;;;46.85;27.05;;;;;;;3.83;74.95;96901.92;1781250;80;25629;-83
2021/03/17 09:06:16;;;;;;;52.10;30.20;;;;;;;3.94;75.06;96892.13;1781150;80;27474;-85
2021/03/17 09:09:06;;;;;;;52.17;31.55;;;;;;;3.89;74.85;96898.50;1781140;80;25706;-84
2021/03/17 09:11:39;;;;;;;55.35;31.95;;;;;;;3.89;75.00;96898.50;1781150;79;25807;-85
2021/03/17 09:14:09;;;;;;;46.73;28.20;;;;;;;3.95;74.89;96896.97;1781307;80;26050;-84
2021/03/17 09:16:39;;;;;;;48.38;27.90;;;;;;;3.99;74.79;96895.56;1781258;79;25761;-84
2021/03/17 09:19:16;;;;;;;49.35;28.52;;;;;;;4.14;74.73;96896.92;1776770;79;28636;-84
2021/03/17 09:21:46;;;;;;;50.88;30.52;;;;;;;4.06;74.69;96898.35;1781118;80;25931;-84
2021/03/17 09:24:35;;;;;;;46.90;27.62;;;;;;;4.03;74.74;96900.88;1781330;80;25770;-85
2021/03/17 09:27:07;;;;;;;44.25;24.98;;;;;;;4.14;74.88;96896.92;1773601;80;27092;-84
2021/03/17 09:29:36;;;;;;;33.67;20.12;;;;;;;4.26;74.67;96904.30;1781271;80;25729;-85
2021/03/17 09:32:05;;;;;;;31.52;19.60;;;;;;;4.28;74.23;96901.44;1781059;80;27500;-85
2021/03/17 09:34:36;;;;;;;39.05;23.55;;;;;;;4.26;73.82;96900.80;1780988;79;26115;-85
2021/03/17 09:37:10;;;;;;;28.52;18.92;;;;;;;4.10;73.77;96895.65;1781216;80;25644;-86
2021/03/17 09:39:39;;;;;;;34.53;20.12;;;;;;;4.06;73.82;96893.02;1781234;80;25818;-85
2021/03/17 09:42:10;;;;;;;31.05;19.48;;;;;;;3.99;73.64;96898.23;1750952;80;25791;-85
2021/03/17 09:44:38;;;;;;;31.27;20.00;;;;;;;4.02;73.56;96895.21;1780522;80;27704;-86
2021/03/17 09:47:05;;;;;;;27.58;17.80;;;;;;;4.06;73.39;96901.02;1781100;79;26046;-84
2021/03/17 09:49:34;;;;;;;27.45;16.10;;;;;;;4.07;73.39;96895.50;1781260;80;26215;-85
2021/03/17 09:52:04;;;;;;;29.35;18.67;;;;;;;3.93;73.24;96907.82;1781184;80;26771;-84
2021/03/17 09:54:33;;;;;;;27.95;18.12;;;;;;;3.92;73.15;96904.83;1781196;80;25871;-84
2021/03/17 09:57:04;;;;;;;26.85;17.82;;;;;;;3.98;73.26;96905.42;1781290;79;28427;-85
2021/03/17 09:59:38;;;;;;;24.02;14.43;;;;;;;4.14;73.45;96903.09;1781094;80;25762;-84
2021/03/17 10:02:21;;;;;;;29.30;16.80;;;;;;;4.36;73.27;96908.02;1781262;80;25725;-86
2021/03/17 10:04:52;;;;;;;30.92;17.50;;;;;;;4.29;72.38;96905.78;1781308;79;26243;-85
2021/03/17 10:07:28;;;;;;;21.95;14.87;;;;;;;4.22;72.12;96902.20;1781257;79;25821;-85
2021/03/17 10:09:57;;;;;;;21.65;12.93;;;;;;;4.46;72.04;96905.92;1781185;79;27504;-85
2021/03/17 10:12:29;;;;;;;30.92;18.60;;;;;;;4.67;71.95;96905.16;1781159;80;26041;-84
2021/03/17 10:15:01;;;;;;;25.43;16.32;;;;;;;4.91;72.08;96911.53;1780723;80;25808;-84
2021/03/17 10:17:30;;;;;;;26.55;17.35;;;;;;;5.18;71.98;96914.00;1781368;80;25926;-84
2021/03/17 10:20:03;;;;;;;24.92;16.65;;;;;;;5.24;71.33;96905.20;1781345;79;25780;-84
2021/03/17 10:22:31;;;;;;;28.27;18.80;;;;;;;5.36;71.30;96911.70;1780757;80;27679;-84
2021/03/17 10:25:03;;;;;;;26.05;15.05;;;;;;;5.50;70.87;96913.17;1781170;80;25758;-85
2021/03/17 10:27:41;;;;;;;23.47;15.43;;;;;;;5.56;70.37;96904.36;1780891;80;25680;-85
2021/03/17 10:30:20;;;;;;;27.85;15.38;;;;;;;5.53;69.91;96903.42;1781201;79;27012;-85
2021/03/17 10:32:49;;;;;;;20.02;11.57;;;;;;;5.57;70.02;96902.83;1780690;80;26334;-85
2021/03/17 10:35:19;;;;;;;26.87;15.03;;;;;;;5.73;70.49;96907.93;1781163;79;26849;-84
2021/03/17 10:37:47;;;;;;;20.92;12.63;;;;;;;5.71;69.61;96904.61;1781106;79;25758;-84
2021/03/17 10:40:19;;;;;;;31.42;14.28;;;;;;;5.80;69.47;96902.62;1781208;80;25750;-85
2021/03/17 10:42:52;;;;;;;19.15;12.15;;;;;;;5.92;69.27;96899.76;1780551;79;26043;-84
2021/03/17 10:45:25;;;;;;;22.32;14.13;;;;;;;5.92;68.69;96898.92;1781247;80;25794;-84
2021/03/17 10:47:53;;;;;;;22.98;12.78;;;;;;;5.92;68.47;96900.27;1780621;79;27497;-85
2021/03/17 10:50:36;;;;;;;20.77;13.20;;;;;;;5.95;68.42;96899.89;1750636;80;25726;-84
2021/03/17 10:53:28;;;;;;;23.25;14.80;;;;;;;5.89;68.26;96900.17;1781324;79;25655;-85
2021/03/17 10:56:00;;;;;;;22.98;15.35;;;;;;;5.92;67.92;96899.76;1776130;80;26036;-84
2021/03/17 10:58:31;;;;;;;26.17;16.45;;;;;;;5.88;67.35;96899.85;1781331;79;25666;-83
2021/03/17 11:01:03;;;;;;;20.35;12.85;;;;;;;5.77;67.24;96898.50;1781217;80;27481;-85
2021/03/17 11:03:38;;;;;;;23.05;14.68;;;;;;;5.62;67.32;96891.05;1781346;80;26107;-84
2021/03/17 11:06:22;;;;;;;23.05;15.38;;;;;;;5.46;67.23;96881.94;1781145;80;25675;-86
2021/03/17 11:09:06;;;;;;;22.48;14.60;;;;;;;5.34;67.16;96895.00;1781137;79;25865;-84
2021/03/17 11:11:51;;;;;;;21.48;13.15;;;;;;;5.28;66.90;96899.80;1781167;79;25679;-85
2021/03/17 11:14:35;;;;;;;23.52;14.45;;;;;;;5.24;66.82;96894.49;1781212;80;26860;-85
2021/03/17 11:17:08;;;;;;;24.63;15.43;;;;;;;5.05;66.60;96896.46;1780893;80;25719;-85
2021/03/17 11:19:37;;;;;;;22.85;13.90;;;;;;;4.78;66.61;96901.17;1781060;79;25749;-86
2021/03/17 11:22:04;;;;;;;23.32;13.10;;;;;;;4.45;66.75;96905.60;1781179;79;25834;-85
2021/03/17 11:24:32;;;;;;;22.87;13.53;;;;;;;4.33;66.96;96904.41;1781178;79;25878;-85
2021/03/17 11:27:00;;;;;;;24.82;14.47;;;;;;;4.12;66.99;96899.77;1781200;79;27490;-84
2021/03/17 11:29:30;;;;;;;23.25;14.10;;;;;;;4.07;67.19;96900.02;1781050;80;25710;-83
2021/03/17 11:32:08;;;;;;;17.85;11.33;;;;;;;4.63;67.89;96895.84;1781167;80;25727;-83
2021/03/17 11:34:35;;;;;;;19.73;11.40;;;;;;;5.18;67.39;96889.91;1781199;80;25832;-83
2021/03/17 11:37:02;;;;;;;20.88;11.60;;;;;;;5.38;66.20;96881.56;1781105;80;25783;-83
2021/03/17 11:39:30;;;;;;;18.77;12.07;;;;;;;5.42;66.13;96888.71;1781174;80;27479;-84
2021/03/17 11:41:58;;;;;;;21.75;12.85;;;;;;;5.34;66.05;96891.49;1781007;80;25742;-84
2021/03/17 11:44:26;;;;;;;20.75;12.20;;;;;;;5.35;65.90;96880.60;1780943;80;25647;-83
2021/03/17 11:46:54;;;;;;;18.62;10.80;;;;;;;5.35;65.93;96883.28;1749812;80;55580;-84
2021/03/17 11:49:22;;;;;;;20.50;12.25;;;;;;;5.31;65.69;96879.31;1780895;79;25894;-85
2021/03/17 11:51:50;;;;;;;22.27;13.45;;;;;;;5.58;66.23;96883.08;1781053;80;28088;-83